WEATHER DATA

YESTERDAY
Time Temp. Dewp. Hum. Wind dir Wind speed Wind gust Bar. 1h Prec. 24h Prec.
00:09 5.6 4.4 92 0 0 1014.2 0.0000 0.0000
00:19 5.5 4.5 93 0 0 1014.3 0.0000 0.0000
00:29 5.4 4.4 93 0 0 1014.1 0.0000 0.0000
00:40 5.3 4.3 93 0 0 1014.4 0.0000 0.0000
00:50 5.2 4.2 93 0 0 1014.5 0.0000 0.0000
00:59 5.2 4.2 93 0 0 1014.6 0.0000 0.0000
01:10 5.2 4.2 93 0 0 1014.7 0.0000 0.0000
01:20 5.2 4.2 93 0 0 1014.8 0.0000 0.0000
01:30 5.3 4.3 93 0 0 1015 0.0000 0.0000
01:40 5.3 4.3 93 0 0 1015.3 0.0000 0.0000
01:51 5.3 4.3 93 0 0 1015 0.0000 0.0000
02:01 5.3 4.3 93 0 0 1015.4 0.0000 0.0000
02:10 5.2 4.2 93 0 0 1015.7 0.0000 0.0000
02:20 5.2 4.2 93 0 0 1015.7 0.0000 0.0000
02:31 5.1 4.1 93 0 0 1016 0.0000 0.0000
02:41 5.1 4.1 93 0 0 1016.1 0.0000 0.0000
03:01 5.1 4.1 93 0 0 1016.3 0.0000 0.0000
03:21 4.9 3.7 92 0 0 1016.4 0.0000 0.0000
03:31 4.8 3.6 92 0 0 1016.7 0.0000 0.0000
03:42 4.7 3.5 92 0 0 1016.9 0.0000 0.0000
03:52 4.6 3.4 92 0 0 1017 0.0000 0.0000
04:02 4.5 3.3 92 0 0 1017.1 0.0000 0.0000
04:12 4.5 3.3 92 0 0 1017.3 0.0000 0.0000
04:23 4.6 3.6 93 0 0 1017.5 0.3030 0.3000
04:34 4.6 3.6 93 0 0 1017.6 0.4040 0.4000
04:44 4.4 3.4 93 0 0 1017.5 0.4040 0.4000
04:54 4.3 3.3 93 0 0 1017.4 0.4040 0.4000
05:04 4.2 3.3 94 0 0 1017.6 0.4040 0.4000
05:15 4.1 3.2 94 0 0 1017.7 0.3030 0.4000
05:24 4 3.1 94 0 0 1017.8 0.0000 0.4000
05:34 4 3.1 94 0 0 1017.8 0.0000 0.4000
05:45 3.9 3 94 0 0 1017.9 0.0000 0.4000
05:55 3.8 2.9 94 0 0 1018.1 0.0000 0.4000
06:05 3.8 2.9 94 0 0 1018.3 0.0000 0.4000
06:15 3.8 2.9 94 0 0 1018.4 0.0000 0.4000
06:26 3.8 2.9 94 0 0 1018.6 0.0000 0.4000
06:35 3.8 2.9 94 0 0 1018.6 0.0000 0.4000
06:45 3.8 2.9 94 0 0 1018.7 0.0000 0.4000
06:56 3.9 3 94 0 0 1018.8 0.0000 0.4000
07:06 3.9 3 94 0 0 1019 0.0000 0.4000
07:16 3.9 3 94 0 0 1019.2 0.0000 0.4000
07:26 3.9 3 94 0 0 1019.2 0.0000 0.4000
07:36 3.9 3 94 0 0 1019.2 0.0000 0.4000
07:46 4 3.1 94 0 0 1019.2 0.0000 0.4000
07:56 4 3.1 94 0 0 1019.4 0.0000 0.4000
08:06 4 3 93 0 0 1019.5 0.0000 0.4000
08:17 4 3 93 0 0 1019.6 0.0000 0.4000
08:27 4.1 3.1 93 0 0 1019.6 0.0000 0.4000
08:37 4.1 3.1 93 0 0 1019.8 0.0000 0.4000
08:47 4.2 3.3 94 0 0 1019.8 0.1010 0.5000
08:57 4.2 3.3 94 0 0 1019.9 0.2020 0.6000
09:07 4.2 3.3 94 0 0 1020 0.2020 0.6000
09:17 4.2 3.3 94 0 0 1020.1 0.2020 0.6000
09:28 4.2 3.3 94 0 0 1020.4 0.2020 0.6000
09:38 4.3 3.3 93 0 0 1020.4 0.2020 0.6000
09:43 4.3 3.3 93 0 0 1020.5 0.1010 0.6000
09:58 4.4 3.4 93 0 0 1020.5 0.0000 0.6000
10:08 4.5 3.5 93 0 0 1020.5 0.0000 0.6000
10:18 4.6 3.6 93 0 0 1020.6 0.0000 0.6000
10:28 4.7 3.5 92 0 0 1020.7 0.0000 0.6000
10:39 4.8 3.6 92 0 0 1021 0.0000 0.6000
10:49 4.9 3.6 91 0 0 1020.9 0.0000 0.6000
10:58 5.1 3.8 91 0 0 1020.7 0.0000 0.6000
11:08 5.4 3.9 90 0 0 1020.9 0.0000 0.6000
11:19 5.5 3.8 89 0 0 1021 0.0000 0.6000
11:29 5.7 4 89 0 0 1020.9 0.0000 0.6000
11:39 5.8 4 88 0 0 1021.1 0.0000 0.6000
11:49 5.8 4 88 0 0 1021 0.0000 0.6000
12:00 5.8 3.8 87 0 0 1020.9 0.0000 0.6000
12:09 5.9 3.9 87 0 0 1020.7 0.0000 0.6000
12:19 6.2 4.2 87 0 0 1020.7 0.0000 0.6000
12:30 6.2 4 86 0 0 1020.7 0.0000 0.6000
12:40 6.2 4 86 0 0 1020.5 0.0000 0.6000
12:50 6.2 4 86 0 0 1020.6 0.0000 0.6000
13:00 6.3 4 85 0 0 1020.6 0.0000 0.6000
13:10 6.4 4.1 85 0 0 1020.5 0.0000 0.6000
13:20 6.4 4.1 85 0 0 1020.6 0.0000 0.6000
13:30 6.3 3.8 84 0 0 1020.3 0.0000 0.6000
13:41 6.1 3.6 84 0 0 1020.3 0.0000 0.6000
13:51 6 3.5 84 0 0 1020.5 0.0000 0.6000
14:01 6 3.5 84 0 0 1020.3 0.0000 0.6000
14:11 6 3.5 84 0 0 1020.4 0.0000 0.6000
14:21 6 3.7 85 0 0 1020.3 0.0000 0.6000
14:31 6.1 3.8 85 0 0 1020 0.0000 0.6000
14:41 6.1 3.6 84 0 0 1020.1 0.0000 0.6000
14:51 6.1 3.6 84 0 0 1020.1 0.0000 0.6000
15:02 6.1 3.4 83 0 0 1020.1 0.0000 0.6000
15:12 6.1 3.4 83 0 0 1020 0.0000 0.6000
15:21 6 3.3 83 0 0 1020 0.0000 0.6000
15:32 6 3.3 83 0 0 1020 0.0000 0.6000
15:42 5.9 3.2 83 0 0 1020 0.0000 0.6000
15:52 5.8 3.3 84 0 0 1019.8 0.0000 0.6000
16:02 5.7 3.2 84 0 0 1019.8 0.0000 0.6000
16:13 5.6 3.3 85 0 0 1019.7 0.0000 0.6000
16:22 5.6 3.3 85 0 0 1019.7 0.0000 0.6000
16:32 5.5 3.3 86 0 0 1019.8 0.0000 0.6000
16:43 5.5 3.5 87 0 0 1020.3 0.0000 0.6000
16:53 5.4 3.6 88 0 0 1020.5 0.1010 0.7000
17:03 5.3 3.8 90 0 0 1020.5 0.1010 0.7000
17:13 5.2 3.7 90 0 0 1020.4 0.1010 0.7000
17:24 5.1 3.6 90 0 0 1020.4 0.1010 0.7000
17:33 5 3.5 90 0 0 1020.4 0.1010 0.7000
17:43 4.9 3.4 90 0 0 1020.5 0.1010 0.7000
17:53 4.7 3.2 90 0 0 1020.2 0.0000 0.7000
18:04 4.6 3.1 90 0 0 1020.4 0.0000 0.7000
18:14 4.6 3.1 90 0 0 1020.6 0.0000 0.7000
18:24 4.5 3.2 91 0 0 1020.7 0.0000 0.7000
18:34 4.4 3.1 91 0 0 1020.8 0.0000 0.7000
18:44 4.3 3 91 0 0 1020.8 0.0000 0.7000
18:54 4.2 2.9 91 0 0 1021 0.0000 0.7000
19:04 4.1 2.9 92 0 0 1021.2 0.0000 0.7000
19:15 4 2.8 92 0 0 1021.1 0.0000 0.7000
19:25 3.8 2.6 92 0 0 1021.1 0.0000 0.7000
19:35 3.8 2.8 93 0 0 1021.2 0.0000 0.7000
19:45 3.8 2.8 93 0 0 1021.2 0.0000 0.7000
19:55 3.8 2.8 93 0 0 1021.3 0.0000 0.7000
20:05 3.8 2.8 93 0 0 1021.3 0.0000 0.7000
20:15 3.8 2.6 92 0 0 1021.2 0.0000 0.7000
20:24 3.8 2.6 92 0 0 1021.5 0.0000 0.7000
20:34 3.8 2.6 92 0 0 1021.2 0.0000 0.7000
20:43 3.6 2.4 92 0 0 1021.4 0.0000 0.7000
20:54 3.6 2.3 91 0 0 1021.3 0.0000 0.7000
21:04 3.6 2.3 91 0 0 1021.4 0.0000 0.7000
21:14 3.6 2.1 90 0 0 1021.4 0.0000 0.7000
21:24 3.5 2 90 0 0 1021.3 0.0000 0.7000
21:35 3.5 2 90 0 0 1021.4 0.0000 0.7000
21:44 3.4 1.9 90 0 0 1021.4 0.0000 0.7000
21:54 3.4 1.9 90 0 0 1021.8 0.0000 0.7000
22:05 3.4 1.9 90 0 0 1021.7 0.0000 0.7000
22:15 3.4 1.9 90 0 0 1021.7 0.0000 0.7000
22:25 3.5 2 90 0 0 1021.7 0.0000 0.7000
22:30 3.5 2 90 0 0 1021.5 0.0000 0.7000
22:41 3.5 2 90 0 0 1021.7 0.0000 0.7000
22:55 3.6 2.1 90 0 0 1021.9 0.0000 0.7000
23:05 3.7 2.1 89 0 0 1021.8 0.0000 0.7000
23:16 3.8 2.2 89 0 0 1021.9 0.0000 0.7000
23:26 3.8 2 88 0 0 1021.5 0.0000 0.7000
23:36 3.8 2 88 0 0 1021.9 0.0000 0.7000
23:46 3.9 2.1 88 0 0 1021.8 0.0000 0.7000
23:57 4 2 87 0 0 1021.8 0.0000 0.7000

DAY STATISTIC

2018-12-10
TEMPERATURE
AVERAGE
4.7
HIGH
6.4
13:10
LOW
3.4
21:44
PRESSURE
AVERAGE
1019.5
HIGH
1021.9
22:55
LOW
1014.1
00:29
DEWPOINT
AVERAGE
3.3
HIGH
4.5
00:19
LOW
1.9
21:44
HUMIDITY
AVERAGE
90
HIGH
94
05:04
LOW
83
15:02
WIND SPEED
AVERAGE
0.0
HIGH
0.0
01:15
WIND GUST
AVERAGE
0.0
HIGH
0.0
01:15
WIND DIRECTION
PREVAILING
%
PRECIPITATION
RAIN HOUR
0.4
RAIN DAY
0.7
TEMPERATURE (°C)
LOW
3.4
HIGH
6.4
AVERAGE
4.7
PRESSURE (hpa)
LOW
1014.1
HIGH
1021.9
AVERAGE
1019.5
DEVICE